John Paul II International Airport Krakow-Balice Airport Krakow PL
ICAO: EPKK
IATA: KRK
Category: Large
Scheduled Services: Yes

Elevation: 791 ft
TransAlt. 6500 ft.

Airport Communications:
KRAKOW APP:121.075
ATIS:126.125
KRAKOW DIRECTOR:123.8
KRAKOW DELIVERY:118.1
KRAKOW TWR:123.25

EPKK Zoom In..

If you have problems with the map follow the link
https://www.worldairports.se/pages/airport.php?
ICAO=EPKK

Runways:

(A) RW 07 length 8366 ft width 197 ft
---- / hdg 74

(B) RW 25 length 8366 ft width 197 ft
ILS 110.30 / hdg 254

Location; EPKK
Day. 05 / Time. 14.00 Zulu
* QNH: 1021
* Temperature: 02° c. 35.6°f.
* Wind from: 220° Speed 05 kn.
Dewpoint: -04° c.
Visibility: 10 km or more,
No clouds below 1,500 m.
No cumulonimbus, and no significant weather
fenomena in the aerodrome or its vicinity.

EPKK 051400Z 22005KT CAVOK 02/M04 Q1021


Wind From 220°
Speed 05 kn.

 
 
jpsmedia worldairports.se 2019   terms of use